sensor_id;sensor_type;location;lat;lon;timestamp;P1;durP1;ratioP1;P2;durP2;ratioP2
53939;SDS011;39850;43.324;21.916;2023-02-15T00:02:56;26.0;;;24.0;;
53939;SDS011;39850;43.324;21.916;2023-02-15T00:07:32;26.0;;;24.0;;
53939;SDS011;39850;43.324;21.916;2023-02-15T00:40:03;26.0;;;25.0;;
53939;SDS011;39850;43.324;21.916;2023-02-15T00:44:41;26.0;;;25.0;;
53939;SDS011;39850;43.324;21.916;2023-02-15T00:49:18;26.0;;;25.0;;
53939;SDS011;39850;43.324;21.916;2023-02-15T00:53:55;26.0;;;25.0;;
53939;SDS011;39850;43.324;21.916;2023-02-15T00:58:32;27.0;;;25.0;;
53939;SDS011;39850;43.324;21.916;2023-02-15T01:03:13;27.0;;;25.0;;
53939;SDS011;39850;43.324;21.916;2023-02-15T01:07:50;27.0;;;25.0;;
53939;SDS011;39850;43.324;21.916;2023-02-15T01:12:26;28.0;;;26.0;;
53939;SDS011;39850;43.324;21.916;2023-02-15T01:17:03;28.0;;;26.0;;
53939;SDS011;39850;43.324;21.916;2023-02-15T01:21:40;28.0;;;26.0;;
53939;SDS011;39850;43.324;21.916;2023-02-15T01:26:18;28.0;;;26.0;;
53939;SDS011;39850;43.324;21.916;2023-02-15T02:19:36;29.0;;;28.0;;
53939;SDS011;39850;43.324;21.916;2023-02-15T02:25:53;29.0;;;28.0;;
53939;SDS011;39850;43.324;21.916;2023-02-15T02:32:08;29.0;;;28.0;;
53939;SDS011;39850;43.324;21.916;2023-02-15T02:37:29;29.0;;;28.0;;
53939;SDS011;39850;43.324;21.916;2023-02-15T02:42:37;29.0;;;28.0;;
53939;SDS011;39850;43.324;21.916;2023-02-15T02:47:40;29.0;;;28.0;;
53939;SDS011;39850;43.324;21.916;2023-02-15T03:31:05;32.0;;;30.0;;
53939;SDS011;39850;43.324;21.916;2023-02-15T03:36:08;32.0;;;30.0;;
53939;SDS011;39850;43.324;21.916;2023-02-15T03:41:02;33.0;;;31.0;;
53939;SDS011;39850;43.324;21.916;2023-02-15T03:46:04;33.0;;;31.0;;
53939;SDS011;39850;43.324;21.916;2023-02-15T03:50:45;33.0;;;31.0;;
53939;SDS011;39850;43.324;21.916;2023-02-15T03:55:23;33.0;;;31.0;;
53939;SDS011;39850;43.324;21.916;2023-02-15T04:00:17;34.0;;;32.0;;
53939;SDS011;39850;43.324;21.916;2023-02-15T04:04:58;34.0;;;32.0;;
53939;SDS011;39850;43.324;21.916;2023-02-15T04:51:09;38.0;;;35.0;;
53939;SDS011;39850;43.324;21.916;2023-02-15T04:55:45;38.0;;;35.0;;
53939;SDS011;39850;43.324;21.916;2023-02-15T05:00:23;40.0;;;36.0;;
53939;SDS011;39850;43.324;21.916;2023-02-15T05:04:59;40.0;;;36.0;;
53939;SDS011;39850;43.324;21.916;2023-02-15T05:09:36;40.0;;;36.0;;
53939;SDS011;39850;43.324;21.916;2023-02-15T05:14:13;40.0;;;36.0;;
53939;SDS011;39850;43.324;21.916;2023-02-15T05:18:50;43.0;;;38.0;;
53939;SDS011;39850;43.324;21.916;2023-02-15T05:23:27;43.0;;;38.0;;
53939;SDS011;39850;43.324;21.916;2023-02-15T05:28:04;43.0;;;38.0;;
53939;SDS011;39850;43.324;21.916;2023-02-15T06:00:26;44.0;;;40.0;;
53939;SDS011;39850;43.324;21.916;2023-02-15T06:05:07;44.0;;;40.0;;
53939;SDS011;39850;43.324;21.916;2023-02-15T06:09:43;44.0;;;40.0;;
53939;SDS011;39850;43.324;21.916;2023-02-15T06:14:20;44.0;;;40.0;;
53939;SDS011;39850;43.324;21.916;2023-02-15T06:18:56;44.0;;;40.0;;
53939;SDS011;39850;43.324;21.916;2023-02-15T06:23:33;44.0;;;39.0;;
53939;SDS011;39850;43.324;21.916;2023-02-15T06:28:10;44.0;;;39.0;;
53939;SDS011;39850;43.324;21.916;2023-02-15T06:32:47;44.0;;;39.0;;
53939;SDS011;39850;43.324;21.916;2023-02-15T06:37:23;44.0;;;39.0;;
53939;SDS011;39850;43.324;21.916;2023-02-15T06:42:01;43.0;;;39.0;;
53939;SDS011;39850;43.324;21.916;2023-02-15T06:46:37;43.0;;;39.0;;
53939;SDS011;39850;43.324;21.916;2023-02-15T07:42:01;36.0;;;33.0;;
53939;SDS011;39850;43.324;21.916;2023-02-15T07:46:37;36.0;;;33.0;;
53939;SDS011;39850;43.324;21.916;2023-02-15T07:51:15;36.0;;;33.0;;
53939;SDS011;39850;43.324;21.916;2023-02-15T07:55:52;36.0;;;33.0;;
53939;SDS011;39850;43.324;21.916;2023-02-15T08:00:29;36.0;;;33.0;;
53939;SDS011;39850;43.324;21.916;2023-02-15T08:05:07;36.0;;;33.0;;
53939;SDS011;39850;43.324;21.916;2023-02-15T08:51:36;29.0;;;27.0;;
53939;SDS011;39850;43.324;21.916;2023-02-15T08:56:13;29.0;;;27.0;;
53939;SDS011;39850;43.324;21.916;2023-02-15T09:00:51;28.0;;;26.0;;
53939;SDS011;39850;43.324;21.916;2023-02-15T09:05:27;28.0;;;26.0;;
53939;SDS011;39850;43.324;21.916;2023-02-15T09:10:07;28.0;;;26.0;;
53939;SDS011;39850;43.324;21.916;2023-02-15T09:14:43;28.0;;;26.0;;
53939;SDS011;39850;43.324;21.916;2023-02-15T09:19:24;28.0;;;26.0;;
53939;SDS011;39850;43.324;21.916;2023-02-15T09:24:09;27.0;;;26.0;;
53939;SDS011;39850;43.324;21.916;2023-02-15T09:28:58;27.0;;;26.0;;
53939;SDS011;39850;43.324;21.916;2023-02-15T10:05:15;24.0;;;24.0;;
53939;SDS011;39850;43.324;21.916;2023-02-15T10:10:35;25.0;;;24.0;;
53939;SDS011;39850;43.324;21.916;2023-02-15T10:15:59;25.0;;;24.0;;
53939;SDS011;39850;43.324;21.916;2023-02-15T10:21:30;25.0;;;25.0;;
53939;SDS011;39850;43.324;21.916;2023-02-15T10:26:43;25.0;;;25.0;;
53939;SDS011;39850;43.324;21.916;2023-02-15T10:31:38;26.0;;;25.0;;
53939;SDS011;39850;43.324;21.916;2023-02-15T10:37:15;26.0;;;25.0;;
53939;SDS011;39850;43.324;21.916;2023-02-15T10:42:53;25.0;;;25.0;;
53939;SDS011;39850;43.324;21.916;2023-02-15T10:48:51;25.0;;;25.0;;
53939;SDS011;39850;43.324;21.916;2023-02-15T11:20:35;24.0;;;23.0;;
53939;SDS011;39850;43.324;21.916;2023-02-15T11:25:33;24.0;;;23.0;;
53939;SDS011;39850;43.324;21.916;2023-02-15T11:30:29;24.0;;;23.0;;
53939;SDS011;39850;43.324;21.916;2023-02-15T11:35:42;24.0;;;23.0;;
53939;SDS011;39850;43.324;21.916;2023-02-15T11:40:48;23.0;;;23.0;;
53939;SDS011;39850;43.324;21.916;2023-02-15T11:45:34;23.0;;;23.0;;
53939;SDS011;39850;43.324;21.916;2023-02-15T11:50:24;22.0;;;22.0;;
53939;SDS011;39850;43.324;21.916;2023-02-15T11:55:22;22.0;;;22.0;;
53939;SDS011;39850;43.324;21.916;2023-02-15T12:00:34;22.0;;;21.0;;
53939;SDS011;39850;43.324;21.916;2023-02-15T12:05:26;22.0;;;21.0;;
53939;SDS011;39850;43.324;21.916;2023-02-15T12:44:25;22.0;;;22.0;;
53939;SDS011;39850;43.324;21.916;2023-02-15T12:49:20;22.0;;;22.0;;
53939;SDS011;39850;43.324;21.916;2023-02-15T12:53:56;22.0;;;22.0;;
53939;SDS011;39850;43.324;21.916;2023-02-15T12:58:39;22.0;;;22.0;;
53939;SDS011;39850;43.324;21.916;2023-02-15T13:03:23;22.0;;;22.0;;
53939;SDS011;39850;43.324;21.916;2023-02-15T13:08:17;22.0;;;22.0;;
53939;SDS011;39850;43.324;21.916;2023-02-15T13:13:00;22.0;;;22.0;;
53939;SDS011;39850;43.324;21.916;2023-02-15T13:17:37;22.0;;;22.0;;
53939;SDS011;39850;43.324;21.916;2023-02-15T13:22:35;22.0;;;23.0;;
53939;SDS011;39850;43.324;21.916;2023-02-15T13:27:38;22.0;;;23.0;;
53939;SDS011;39850;43.324;21.916;2023-02-15T14:05:15;23.0;;;23.0;;
53939;SDS011;39850;43.324;21.916;2023-02-15T14:10:55;24.0;;;24.0;;
53939;SDS011;39850;43.324;21.916;2023-02-15T14:16:02;24.0;;;24.0;;
53939;SDS011;39850;43.324;21.916;2023-02-15T14:21:17;25.0;;;24.0;;
53939;SDS011;39850;43.324;21.916;2023-02-15T14:26:29;25.0;;;24.0;;
53939;SDS011;39850;43.324;21.916;2023-02-15T14:31:44;25.0;;;24.0;;
53939;SDS011;39850;43.324;21.916;2023-02-15T14:36:31;25.0;;;24.0;;
53939;SDS011;39850;43.324;21.916;2023-02-15T14:41:34;25.0;;;24.0;;
53939;SDS011;39850;43.324;21.916;2023-02-15T14:46:50;25.0;;;24.0;;
53939;SDS011;39850;43.324;21.916;2023-02-15T15:22:43;29.0;;;28.0;;
53939;SDS011;39850;43.324;21.916;2023-02-15T15:27:50;29.0;;;28.0;;
53939;SDS011;39850;43.324;21.916;2023-02-15T15:32:35;30.0;;;30.0;;
53939;SDS011;39850;43.324;21.916;2023-02-15T15:38:37;30.0;;;30.0;;
53939;SDS011;39850;43.324;21.916;2023-02-15T15:45:18;29.0;;;28.0;;
53939;SDS011;39850;43.324;21.916;2023-02-15T15:50:22;29.0;;;28.0;;
53939;SDS011;39850;43.324;21.916;2023-02-15T15:55:21;30.0;;;30.0;;
53939;SDS011;39850;43.324;21.916;2023-02-15T16:00:02;30.0;;;30.0;;
53939;SDS011;39850;43.324;21.916;2023-02-15T16:04:40;29.0;;;28.0;;
53939;SDS011;39850;43.324;21.916;2023-02-15T16:09:27;29.0;;;28.0;;
53939;SDS011;39850;43.324;21.916;2023-02-15T16:44:18;40.0;;;36.0;;
53939;SDS011;39850;43.324;21.916;2023-02-15T16:49:17;40.0;;;36.0;;
53939;SDS011;39850;43.324;21.916;2023-02-15T16:54:15;59.0;;;48.0;;
53939;SDS011;39850;43.324;21.916;2023-02-15T16:59:00;59.0;;;48.0;;
53939;SDS011;39850;43.324;21.916;2023-02-15T17:03:40;78.0;;;61.0;;
53939;SDS011;39850;43.324;21.916;2023-02-15T17:08:31;78.0;;;61.0;;
53939;SDS011;39850;43.324;21.916;2023-02-15T17:13:16;86.0;;;67.0;;
53939;SDS011;39850;43.324;21.916;2023-02-15T17:18:11;86.0;;;67.0;;
53939;SDS011;39850;43.324;21.916;2023-02-15T17:22:54;93.0;;;73.0;;
53939;SDS011;39850;43.324;21.916;2023-02-15T17:27:33;93.0;;;73.0;;
53939;SDS011;39850;43.324;21.916;2023-02-15T18:04:53;96.0;;;77.0;;
53939;SDS011;39850;43.324;21.916;2023-02-15T18:09:29;96.0;;;77.0;;
53939;SDS011;39850;43.324;21.916;2023-02-15T18:14:10;102.0;;;82.0;;
53939;SDS011;39850;43.324;21.916;2023-02-15T18:18:47;102.0;;;82.0;;
53939;SDS011;39850;43.324;21.916;2023-02-15T18:23:23;96.0;;;78.0;;
53939;SDS011;39850;43.324;21.916;2023-02-15T18:28:00;96.0;;;78.0;;
53939;SDS011;39850;43.324;21.916;2023-02-15T18:32:38;101.0;;;82.0;;
53939;SDS011;39850;43.324;21.916;2023-02-15T18:37:21;101.0;;;82.0;;
53939;SDS011;39850;43.324;21.916;2023-02-15T18:41:59;95.0;;;78.0;;
53939;SDS011;39850;43.324;21.916;2023-02-15T18:46:36;95.0;;;78.0;;
53939;SDS011;39850;43.324;21.916;2023-02-15T18:51:22;95.0;;;78.0;;
53939;SDS011;39850;43.324;21.916;2023-02-15T19:24:08;89.0;;;74.0;;
53939;SDS011;39850;43.324;21.916;2023-02-15T19:28:51;89.0;;;74.0;;
53939;SDS011;39850;43.324;21.916;2023-02-15T19:33:29;93.0;;;76.0;;
53939;SDS011;39850;43.324;21.916;2023-02-15T19:38:25;93.0;;;76.0;;
53939;SDS011;39850;43.324;21.916;2023-02-15T19:43:21;97.0;;;78.0;;
53939;SDS011;39850;43.324;21.916;2023-02-15T19:48:01;97.0;;;78.0;;
53939;SDS011;39850;43.324;21.916;2023-02-15T19:52:38;98.0;;;78.0;;
53939;SDS011;39850;43.324;21.916;2023-02-15T19:57:16;98.0;;;78.0;;
53939;SDS011;39850;43.324;21.916;2023-02-15T20:01:56;98.0;;;78.0;;
53939;SDS011;39850;43.324;21.916;2023-02-15T20:06:34;98.0;;;78.0;;
53939;SDS011;39850;43.324;21.916;2023-02-15T20:11:13;98.0;;;78.0;;
53939;SDS011;39850;43.324;21.916;2023-02-15T20:44:31;95.0;;;77.0;;
53939;SDS011;39850;43.324;21.916;2023-02-15T20:49:07;95.0;;;77.0;;
53939;SDS011;39850;43.324;21.916;2023-02-15T20:53:45;104.0;;;84.0;;
53939;SDS011;39850;43.324;21.916;2023-02-15T20:58:29;104.0;;;84.0;;
53939;SDS011;39850;43.324;21.916;2023-02-15T21:03:20;114.0;;;92.0;;
53939;SDS011;39850;43.324;21.916;2023-02-15T21:08:01;114.0;;;92.0;;
53939;SDS011;39850;43.324;21.916;2023-02-15T21:12:37;126.0;;;98.0;;
53939;SDS011;39850;43.324;21.916;2023-02-15T21:17:16;126.0;;;98.0;;
53939;SDS011;39850;43.324;21.916;2023-02-15T21:21:55;126.0;;;98.0;;
53939;SDS011;39850;43.324;21.916;2023-02-15T21:26:32;137.0;;;103.0;;
53939;SDS011;39850;43.324;21.916;2023-02-15T21:31:21;137.0;;;103.0;;
53939;SDS011;39850;43.324;21.916;2023-02-15T22:13:09;121.0;;;96.0;;
53939;SDS011;39850;43.324;21.916;2023-02-15T22:17:51;121.0;;;96.0;;
53939;SDS011;39850;43.324;21.916;2023-02-15T22:22:28;124.0;;;96.0;;
53939;SDS011;39850;43.324;21.916;2023-02-15T22:27:17;124.0;;;96.0;;
53939;SDS011;39850;43.324;21.916;2023-02-15T22:31:58;124.0;;;96.0;;
53939;SDS011;39850;43.324;21.916;2023-02-15T22:36:35;124.0;;;96.0;;
53939;SDS011;39850;43.324;21.916;2023-02-15T22:41:13;124.0;;;96.0;;
53939;SDS011;39850;43.324;21.916;2023-02-15T22:45:52;126.0;;;96.0;;
53939;SDS011;39850;43.324;21.916;2023-02-15T22:50:33;126.0;;;96.0;;
53939;SDS011;39850;43.324;21.916;2023-02-15T23:23:30;147.0;;;113.0;;
53939;SDS011;39850;43.324;21.916;2023-02-15T23:28:29;147.0;;;113.0;;
53939;SDS011;39850;43.324;21.916;2023-02-15T23:33:12;140.0;;;107.0;;
53939;SDS011;39850;43.324;21.916;2023-02-15T23:37:49;140.0;;;107.0;;
53939;SDS011;39850;43.324;21.916;2023-02-15T23:42:34;140.0;;;107.0;;
53939;SDS011;39850;43.324;21.916;2023-02-15T23:47:28;147.0;;;113.0;;
53939;SDS011;39850;43.324;21.916;2023-02-15T23:52:11;147.0;;;113.0;;
53939;SDS011;39850;43.324;21.916;2023-02-15T23:57:00;152.0;;;112.0;;
